sensor_id;sensor_type;location;lat;lon;timestamp;P1;durP1;ratioP1;P2;durP2;ratioP2
45694;SDS011;31408;45.468;9.124;2024-03-23T00:55:22;59.97;;;31.30;;
45694;SDS011;31408;45.468;9.124;2024-03-23T00:57:47;61.85;;;31.88;;
45694;SDS011;31408;45.468;9.124;2024-03-23T01:00:13;63.72;;;32.45;;
45694;SDS011;31408;45.468;9.124;2024-03-23T01:02:38;68.38;;;33.10;;
45694;SDS011;31408;45.468;9.124;2024-03-23T01:05:04;64.03;;;33.22;;
45694;SDS011;31408;45.468;9.124;2024-03-23T01:07:29;55.92;;;29.50;;
45694;SDS011;31408;45.468;9.124;2024-03-23T01:09:54;61.30;;;31.75;;
45694;SDS011;31408;45.468;9.124;2024-03-23T01:12:19;61.58;;;30.38;;
45694;SDS011;31408;45.468;9.124;2024-03-23T01:14:45;65.57;;;31.58;;
45694;SDS011;31408;45.468;9.124;2024-03-23T01:17:10;54.30;;;29.60;;
45694;SDS011;31408;45.468;9.124;2024-03-23T01:19:35;55.92;;;30.83;;
45694;SDS011;31408;45.468;9.124;2024-03-23T01:22:01;67.22;;;30.23;;
45694;SDS011;31408;45.468;9.124;2024-03-23T01:24:26;57.65;;;32.28;;
45694;SDS011;31408;45.468;9.124;2024-03-23T01:26:51;56.88;;;30.73;;
45694;SDS011;31408;45.468;9.124;2024-03-23T01:29:16;68.78;;;32.55;;
45694;SDS011;31408;45.468;9.124;2024-03-23T01:31:42;56.53;;;31.73;;
45694;SDS011;31408;45.468;9.124;2024-03-23T01:34:07;56.13;;;28.55;;
45694;SDS011;31408;45.468;9.124;2024-03-23T01:36:32;61.78;;;31.10;;
45694;SDS011;31408;45.468;9.124;2024-03-23T01:38:58;62.15;;;29.02;;
45694;SDS011;31408;45.468;9.124;2024-03-23T01:41:24;55.78;;;29.85;;
45694;SDS011;31408;45.468;9.124;2024-03-23T01:43:49;59.47;;;30.33;;
45694;SDS011;31408;45.468;9.124;2024-03-23T01:46:14;63.42;;;31.55;;
45694;SDS011;31408;45.468;9.124;2024-03-23T01:48:40;58.03;;;30.02;;
45694;SDS011;31408;45.468;9.124;2024-03-23T01:51:05;59.90;;;29.88;;
45694;SDS011;31408;45.468;9.124;2024-03-23T01:53:30;51.17;;;29.48;;
45694;SDS011;31408;45.468;9.124;2024-03-23T01:55:56;55.63;;;27.83;;
45694;SDS011;31408;45.468;9.124;2024-03-23T01:58:22;57.80;;;29.15;;
45694;SDS011;31408;45.468;9.124;2024-03-23T02:00:47;54.95;;;29.13;;
45694;SDS011;31408;45.468;9.124;2024-03-23T02:03:22;54.75;;;27.75;;
45694;SDS011;31408;45.468;9.124;2024-03-23T02:05:48;52.72;;;27.20;;
45694;SDS011;31408;45.468;9.124;2024-03-23T02:08:13;62.38;;;29.63;;
45694;SDS011;31408;45.468;9.124;2024-03-23T02:10:39;55.75;;;29.73;;
45694;SDS011;31408;45.468;9.124;2024-03-23T02:13:04;60.83;;;29.20;;
45694;SDS011;31408;45.468;9.124;2024-03-23T02:15:30;63.08;;;28.55;;
45694;SDS011;31408;45.468;9.124;2024-03-23T02:17:55;65.60;;;30.20;;
45694;SDS011;31408;45.468;9.124;2024-03-23T02:20:20;60.05;;;31.67;;
45694;SDS011;31408;45.468;9.124;2024-03-23T02:22:46;51.13;;;27.67;;
45694;SDS011;31408;45.468;9.124;2024-03-23T02:25:11;59.88;;;28.00;;
45694;SDS011;31408;45.468;9.124;2024-03-23T02:27:36;54.90;;;29.33;;
45694;SDS011;31408;45.468;9.124;2024-03-23T02:30:04;52.10;;;26.63;;
45694;SDS011;31408;45.468;9.124;2024-03-23T02:32:29;57.22;;;27.27;;
45694;SDS011;31408;45.468;9.124;2024-03-23T02:34:54;56.78;;;29.42;;
45694;SDS011;31408;45.468;9.124;2024-03-23T02:37:20;53.25;;;27.77;;
45694;SDS011;31408;45.468;9.124;2024-03-23T02:39:45;56.42;;;26.15;;
45694;SDS011;31408;45.468;9.124;2024-03-23T02:42:10;53.35;;;28.25;;
45694;SDS011;31408;45.468;9.124;2024-03-23T02:44:35;61.60;;;28.45;;
45694;SDS011;31408;45.468;9.124;2024-03-23T02:47:01;53.92;;;28.20;;
45694;SDS011;31408;45.468;9.124;2024-03-23T02:49:26;55.30;;;26.75;;
45694;SDS011;31408;45.468;9.124;2024-03-23T02:51:52;53.42;;;27.38;;
45694;SDS011;31408;45.468;9.124;2024-03-23T02:54:17;47.30;;;26.75;;
45694;SDS011;31408;45.468;9.124;2024-03-23T02:56:42;51.92;;;28.77;;
45694;SDS011;31408;45.468;9.124;2024-03-23T02:59:07;56.00;;;27.33;;
45694;SDS011;31408;45.468;9.124;2024-03-23T03:01:33;53.67;;;26.38;;
45694;SDS011;31408;45.468;9.124;2024-03-23T03:03:58;53.40;;;28.25;;
45694;SDS011;31408;45.468;9.124;2024-03-23T03:06:26;50.55;;;25.77;;
45694;SDS011;31408;45.468;9.124;2024-03-23T03:08:51;48.75;;;26.27;;
45694;SDS011;31408;45.468;9.124;2024-03-23T03:11:17;54.83;;;28.48;;
45694;SDS011;31408;45.468;9.124;2024-03-23T03:13:42;52.92;;;25.15;;
45694;SDS011;31408;45.468;9.124;2024-03-23T03:16:11;54.75;;;28.05;;
45694;SDS011;31408;45.468;9.124;2024-03-23T03:18:36;58.95;;;27.33;;
45694;SDS011;31408;45.468;9.124;2024-03-23T03:21:01;53.67;;;26.33;;
45694;SDS011;31408;45.468;9.124;2024-03-23T03:23:27;58.60;;;28.33;;
45694;SDS011;31408;45.468;9.124;2024-03-23T03:25:52;52.38;;;27.27;;
45694;SDS011;31408;45.468;9.124;2024-03-23T03:28:18;47.33;;;25.83;;
45694;SDS011;31408;45.468;9.124;2024-03-23T03:30:43;54.40;;;28.50;;
45694;SDS011;31408;45.468;9.124;2024-03-23T03:33:08;51.47;;;26.95;;
45694;SDS011;31408;45.468;9.124;2024-03-23T03:35:33;56.03;;;28.42;;
45694;SDS011;31408;45.468;9.124;2024-03-23T03:37:59;56.88;;;27.75;;
45694;SDS011;31408;45.468;9.124;2024-03-23T03:40:24;52.28;;;27.83;;
45694;SDS011;31408;45.468;9.124;2024-03-23T03:42:50;49.90;;;26.23;;
45694;SDS011;31408;45.468;9.124;2024-03-23T03:45:15;48.75;;;25.92;;
45694;SDS011;31408;45.468;9.124;2024-03-23T03:47:41;56.45;;;26.98;;
45694;SDS011;31408;45.468;9.124;2024-03-23T03:50:06;50.53;;;26.45;;
45694;SDS011;31408;45.468;9.124;2024-03-23T03:52:31;56.50;;;30.02;;
45694;SDS011;31408;45.468;9.124;2024-03-23T03:55:01;48.70;;;26.65;;
45694;SDS011;31408;45.468;9.124;2024-03-23T03:57:27;56.47;;;28.05;;
45694;SDS011;31408;45.468;9.124;2024-03-23T03:59:52;47.47;;;26.15;;
45694;SDS011;31408;45.468;9.124;2024-03-23T04:02:17;51.83;;;27.58;;
45694;SDS011;31408;45.468;9.124;2024-03-23T04:04:43;56.35;;;29.38;;
45694;SDS011;31408;45.468;9.124;2024-03-23T04:07:08;53.15;;;26.67;;
45694;SDS011;31408;45.468;9.124;2024-03-23T04:09:33;53.78;;;26.70;;
45694;SDS011;31408;45.468;9.124;2024-03-23T04:11:59;53.15;;;26.58;;
45694;SDS011;31408;45.468;9.124;2024-03-23T04:14:24;57.70;;;28.80;;
45694;SDS011;31408;45.468;9.124;2024-03-23T04:16:49;49.80;;;26.63;;
45694;SDS011;31408;45.468;9.124;2024-03-23T04:19:15;54.22;;;29.67;;
45694;SDS011;31408;45.468;9.124;2024-03-23T04:21:40;51.70;;;29.30;;
45694;SDS011;31408;45.468;9.124;2024-03-23T04:24:05;54.45;;;26.85;;
45694;SDS011;31408;45.468;9.124;2024-03-23T04:26:40;52.35;;;27.85;;
45694;SDS011;31408;45.468;9.124;2024-03-23T04:29:05;50.03;;;26.63;;
45694;SDS011;31408;45.468;9.124;2024-03-23T04:31:30;52.97;;;26.55;;
45694;SDS011;31408;45.468;9.124;2024-03-23T04:33:57;61.58;;;30.27;;
45694;SDS011;31408;45.468;9.124;2024-03-23T04:36:22;50.80;;;26.33;;
45694;SDS011;31408;45.468;9.124;2024-03-23T04:38:47;57.50;;;26.77;;
45694;SDS011;31408;45.468;9.124;2024-03-23T04:41:15;56.72;;;28.40;;
45694;SDS011;31408;45.468;9.124;2024-03-23T04:43:40;54.03;;;27.38;;
45694;SDS011;31408;45.468;9.124;2024-03-23T04:46:05;50.55;;;27.15;;
45694;SDS011;31408;45.468;9.124;2024-03-23T04:48:31;50.00;;;27.97;;
45694;SDS011;31408;45.468;9.124;2024-03-23T04:50:57;56.20;;;29.45;;
45694;SDS011;31408;45.468;9.124;2024-03-23T04:53:23;50.10;;;26.67;;
45694;SDS011;31408;45.468;9.124;2024-03-23T04:55:54;48.45;;;26.42;;
45694;SDS011;31408;45.468;9.124;2024-03-23T04:58:20;57.58;;;29.40;;
45694;SDS011;31408;45.468;9.124;2024-03-23T05:00:45;49.13;;;26.80;;
45694;SDS011;31408;45.468;9.124;2024-03-23T05:03:10;54.88;;;25.02;;
45694;SDS011;31408;45.468;9.124;2024-03-23T05:05:36;49.95;;;26.45;;
45694;SDS011;31408;45.468;9.124;2024-03-23T05:08:01;55.78;;;28.48;;
45694;SDS011;31408;45.468;9.124;2024-03-23T05:10:26;58.42;;;28.05;;
45694;SDS011;31408;45.468;9.124;2024-03-23T05:12:51;58.70;;;28.77;;
45694;SDS011;31408;45.468;9.124;2024-03-23T05:15:17;56.45;;;26.42;;
45694;SDS011;31408;45.468;9.124;2024-03-23T05:17:42;55.25;;;26.58;;
45694;SDS011;31408;45.468;9.124;2024-03-23T05:20:07;49.60;;;25.58;;
45694;SDS011;31408;45.468;9.124;2024-03-23T05:22:37;53.20;;;25.10;;
45694;SDS011;31408;45.468;9.124;2024-03-23T05:25:02;56.17;;;27.80;;
45694;SDS011;31408;45.468;9.124;2024-03-23T05:27:30;52.80;;;28.33;;
45694;SDS011;31408;45.468;9.124;2024-03-23T05:29:55;53.35;;;26.52;;
45694;SDS011;31408;45.468;9.124;2024-03-23T05:32:20;56.40;;;29.05;;
45694;SDS011;31408;45.468;9.124;2024-03-23T05:34:46;56.00;;;28.45;;
45694;SDS011;31408;45.468;9.124;2024-03-23T05:37:11;47.45;;;26.58;;
45694;SDS011;31408;45.468;9.124;2024-03-23T05:39:36;55.88;;;26.40;;
45694;SDS011;31408;45.468;9.124;2024-03-23T05:42:01;48.50;;;23.98;;
45694;SDS011;31408;45.468;9.124;2024-03-23T05:44:27;49.72;;;27.10;;
45694;SDS011;31408;45.468;9.124;2024-03-23T05:46:52;48.90;;;25.02;;
45694;SDS011;31408;45.468;9.124;2024-03-23T05:49:17;49.58;;;27.25;;
45694;SDS011;31408;45.468;9.124;2024-03-23T05:51:43;50.90;;;25.25;;
45694;SDS011;31408;45.468;9.124;2024-03-23T05:54:08;42.72;;;24.10;;
45694;SDS011;31408;45.468;9.124;2024-03-23T05:56:34;48.63;;;26.45;;
45694;SDS011;31408;45.468;9.124;2024-03-23T05:58:59;48.83;;;24.83;;
45694;SDS011;31408;45.468;9.124;2024-03-23T06:01:25;49.88;;;24.40;;
45694;SDS011;31408;45.468;9.124;2024-03-23T06:03:53;47.00;;;25.00;;
45694;SDS011;31408;45.468;9.124;2024-03-23T06:06:19;52.55;;;26.02;;
45694;SDS011;31408;45.468;9.124;2024-03-23T06:08:44;50.40;;;26.23;;
45694;SDS011;31408;45.468;9.124;2024-03-23T06:11:09;49.45;;;24.13;;
45694;SDS011;31408;45.468;9.124;2024-03-23T06:13:34;46.67;;;23.25;;
45694;SDS011;31408;45.468;9.124;2024-03-23T06:16:00;52.25;;;25.48;;
45694;SDS011;31408;45.468;9.124;2024-03-23T06:18:26;57.70;;;25.40;;
45694;SDS011;31408;45.468;9.124;2024-03-23T06:20:51;50.75;;;24.85;;
45694;SDS011;31408;45.468;9.124;2024-03-23T06:23:17;53.90;;;29.08;;
45694;SDS011;31408;45.468;9.124;2024-03-23T06:25:44;52.63;;;27.40;;
45694;SDS011;31408;45.468;9.124;2024-03-23T06:28:10;55.53;;;27.52;;
45694;SDS011;31408;45.468;9.124;2024-03-23T06:30:35;45.63;;;24.83;;
45694;SDS011;31408;45.468;9.124;2024-03-23T06:33:01;53.20;;;25.10;;
45694;SDS011;31408;45.468;9.124;2024-03-23T06:35:26;53.72;;;26.48;;
45694;SDS011;31408;45.468;9.124;2024-03-23T06:37:52;52.80;;;26.38;;
45694;SDS011;31408;45.468;9.124;2024-03-23T06:40:17;57.55;;;27.30;;
45694;SDS011;31408;45.468;9.124;2024-03-23T06:42:42;47.25;;;25.80;;
45694;SDS011;31408;45.468;9.124;2024-03-23T06:45:08;53.35;;;27.17;;
45694;SDS011;31408;45.468;9.124;2024-03-23T06:47:33;59.97;;;27.60;;
45694;SDS011;31408;45.468;9.124;2024-03-23T06:49:59;51.25;;;26.50;;
45694;SDS011;31408;45.468;9.124;2024-03-23T06:52:26;56.45;;;27.00;;
45694;SDS011;31408;45.468;9.124;2024-03-23T06:54:52;58.85;;;28.08;;
45694;SDS011;31408;45.468;9.124;2024-03-23T06:57:18;53.53;;;28.35;;
45694;SDS011;31408;45.468;9.124;2024-03-23T06:59:43;55.42;;;26.80;;
45694;SDS011;31408;45.468;9.124;2024-03-23T07:02:08;47.13;;;25.83;;
45694;SDS011;31408;45.468;9.124;2024-03-23T07:04:34;52.72;;;26.65;;
45694;SDS011;31408;45.468;9.124;2024-03-23T07:06:59;46.17;;;23.25;;
45694;SDS011;31408;45.468;9.124;2024-03-23T07:09:24;48.42;;;26.02;;
45694;SDS011;31408;45.468;9.124;2024-03-23T07:11:51;53.20;;;25.35;;
45694;SDS011;31408;45.468;9.124;2024-03-23T07:14:16;64.88;;;27.75;;
45694;SDS011;31408;45.468;9.124;2024-03-23T07:16:41;48.53;;;24.33;;
45694;SDS011;31408;45.468;9.124;2024-03-23T07:19:06;42.55;;;25.17;;
45694;SDS011;31408;45.468;9.124;2024-03-23T07:21:32;40.22;;;22.75;;
45694;SDS011;31408;45.468;9.124;2024-03-23T07:23:57;47.70;;;23.05;;
45694;SDS011;31408;45.468;9.124;2024-03-23T07:26:23;47.40;;;23.50;;
45694;SDS011;31408;45.468;9.124;2024-03-23T07:28:48;43.20;;;21.13;;
45694;SDS011;31408;45.468;9.124;2024-03-23T07:31:14;41.63;;;20.08;;
45694;SDS011;31408;45.468;9.124;2024-03-23T07:33:44;45.08;;;20.77;;
45694;SDS011;31408;45.468;9.124;2024-03-23T07:36:09;37.85;;;17.80;;
45694;SDS011;31408;45.468;9.124;2024-03-23T07:38:34;39.05;;;18.20;;
45694;SDS011;31408;45.468;9.124;2024-03-23T07:43:28;36.88;;;17.27;;
45694;SDS011;31408;45.468;9.124;2024-03-23T07:45:53;32.50;;;17.00;;
45694;SDS011;31408;45.468;9.124;2024-03-23T07:48:20;35.35;;;17.38;;
45694;SDS011;31408;45.468;9.124;2024-03-23T07:50:55;37.33;;;18.80;;
45694;SDS011;31408;45.468;9.124;2024-03-23T07:53:20;37.15;;;16.38;;
45694;SDS011;31408;45.468;9.124;2024-03-23T07:55:52;34.33;;;16.52;;
45694;SDS011;31408;45.468;9.124;2024-03-23T07:58:17;31.65;;;16.00;;
45694;SDS011;31408;45.468;9.124;2024-03-23T08:00:42;31.23;;;14.80;;
45694;SDS011;31408;45.468;9.124;2024-03-23T08:03:07;33.35;;;14.68;;
45694;SDS011;31408;45.468;9.124;2024-03-23T08:05:33;34.55;;;16.23;;
45694;SDS011;31408;45.468;9.124;2024-03-23T08:07:59;34.00;;;14.32;;
45694;SDS011;31408;45.468;9.124;2024-03-23T08:10:24;103.00;;;24.83;;
45694;SDS011;31408;45.468;9.124;2024-03-23T08:12:49;35.00;;;14.25;;
45694;SDS011;31408;45.468;9.124;2024-03-23T08:15:14;25.55;;;12.40;;
45694;SDS011;31408;45.468;9.124;2024-03-23T08:17:40;28.55;;;13.57;;
45694;SDS011;31408;45.468;9.124;2024-03-23T08:20:06;29.02;;;12.60;;
45694;SDS011;31408;45.468;9.124;2024-03-23T08:22:33;29.80;;;13.45;;
45694;SDS011;31408;45.468;9.124;2024-03-23T08:24:58;30.33;;;14.63;;
45694;SDS011;31408;45.468;9.124;2024-03-23T08:27:23;27.05;;;12.90;;
45694;SDS011;31408;45.468;9.124;2024-03-23T08:29:49;27.33;;;12.40;;
45694;SDS011;31408;45.468;9.124;2024-03-23T08:32:14;28.48;;;13.23;;
45694;SDS011;31408;45.468;9.124;2024-03-23T08:34:39;23.17;;;11.45;;
45694;SDS011;31408;45.468;9.124;2024-03-23T08:37:04;30.45;;;11.43;;
45694;SDS011;31408;45.468;9.124;2024-03-23T08:39:30;26.15;;;12.68;;
45694;SDS011;31408;45.468;9.124;2024-03-23T08:41:55;27.92;;;11.82;;
45694;SDS011;31408;45.468;9.124;2024-03-23T08:44:20;20.23;;;11.02;;
45694;SDS011;31408;45.468;9.124;2024-03-23T08:46:45;22.80;;;10.60;;
45694;SDS011;31408;45.468;9.124;2024-03-23T08:49:11;26.23;;;11.70;;
45694;SDS011;31408;45.468;9.124;2024-03-23T08:51:37;28.63;;;11.27;;
45694;SDS011;31408;45.468;9.124;2024-03-23T08:54:02;24.73;;;11.07;;
45694;SDS011;31408;45.468;9.124;2024-03-23T08:56:28;28.58;;;12.77;;
45694;SDS011;31408;45.468;9.124;2024-03-23T08:58:53;24.38;;;10.90;;
45694;SDS011;31408;45.468;9.124;2024-03-23T09:01:18;23.25;;;10.32;;
45694;SDS011;31408;45.468;9.124;2024-03-23T09:03:43;23.90;;;10.45;;
45694;SDS011;31408;45.468;9.124;2024-03-23T09:06:10;20.58;;;9.52;;
45694;SDS011;31408;45.468;9.124;2024-03-23T09:08:35;21.98;;;10.02;;
45694;SDS011;31408;45.468;9.124;2024-03-23T09:11:05;19.10;;;9.00;;
45694;SDS011;31408;45.468;9.124;2024-03-23T09:13:34;19.67;;;8.75;;
45694;SDS011;31408;45.468;9.124;2024-03-23T09:15:59;20.27;;;9.73;;
45694;SDS011;31408;45.468;9.124;2024-03-23T09:18:25;22.60;;;10.70;;
45694;SDS011;31408;45.468;9.124;2024-03-23T09:20:50;21.20;;;10.73;;
45694;SDS011;31408;45.468;9.124;2024-03-23T09:23:15;23.73;;;10.68;;
45694;SDS011;31408;45.468;9.124;2024-03-23T09:25:41;17.90;;;9.13;;
45694;SDS011;31408;45.468;9.124;2024-03-23T09:28:06;21.10;;;9.18;;
45694;SDS011;31408;45.468;9.124;2024-03-23T09:30:33;14.30;;;7.75;;
45694;SDS011;31408;45.468;9.124;2024-03-23T09:32:59;20.13;;;9.02;;
45694;SDS011;31408;45.468;9.124;2024-03-23T09:35:24;24.67;;;10.27;;
45694;SDS011;31408;45.468;9.124;2024-03-23T09:37:49;18.63;;;9.05;;
45694;SDS011;31408;45.468;9.124;2024-03-23T09:40:15;18.23;;;8.70;;
45694;SDS011;31408;45.468;9.124;2024-03-23T09:42:40;19.67;;;9.25;;
45694;SDS011;31408;45.468;9.124;2024-03-23T09:45:13;16.92;;;8.43;;
45694;SDS011;31408;45.468;9.124;2024-03-23T09:47:41;19.45;;;9.35;;
45694;SDS011;31408;45.468;9.124;2024-03-23T09:50:07;23.70;;;11.10;;
45694;SDS011;31408;45.468;9.124;2024-03-23T09:52:32;24.67;;;11.10;;
45694;SDS011;31408;45.468;9.124;2024-03-23T09:54:58;21.73;;;9.98;;
45694;SDS011;31408;45.468;9.124;2024-03-23T09:57:23;19.45;;;8.70;;
45694;SDS011;31408;45.468;9.124;2024-03-23T09:59:48;19.58;;;9.18;;
45694;SDS011;31408;45.468;9.124;2024-03-23T10:02:15;21.88;;;9.45;;
45694;SDS011;31408;45.468;9.124;2024-03-23T10:04:42;22.00;;;9.52;;
45694;SDS011;31408;45.468;9.124;2024-03-23T10:09:37;24.13;;;10.50;;
45694;SDS011;31408;45.468;9.124;2024-03-23T10:12:09;20.80;;;8.68;;
45694;SDS011;31408;45.468;9.124;2024-03-23T10:14:34;16.13;;;7.40;;
45694;SDS011;31408;45.468;9.124;2024-03-23T10:19:41;16.02;;;6.63;;
45694;SDS011;31408;45.468;9.124;2024-03-23T10:22:07;14.98;;;6.65;;
45694;SDS011;31408;45.468;9.124;2024-03-23T10:24:33;18.52;;;6.82;;
45694;SDS011;31408;45.468;9.124;2024-03-23T10:26:58;18.65;;;8.13;;
45694;SDS011;31408;45.468;9.124;2024-03-23T10:29:23;16.35;;;7.75;;
45694;SDS011;31408;45.468;9.124;2024-03-23T10:31:51;18.60;;;7.95;;
45694;SDS011;31408;45.468;9.124;2024-03-23T10:34:16;18.50;;;8.30;;
45694;SDS011;31408;45.468;9.124;2024-03-23T10:36:41;20.10;;;8.27;;
45694;SDS011;31408;45.468;9.124;2024-03-23T10:43:57;20.47;;;7.40;;
45694;SDS011;31408;45.468;9.124;2024-03-23T10:46:23;17.20;;;6.90;;
45694;SDS011;31408;45.468;9.124;2024-03-23T10:48:48;18.70;;;8.30;;
45694;SDS011;31408;45.468;9.124;2024-03-23T10:51:14;23.10;;;10.07;;
45694;SDS011;31408;45.468;9.124;2024-03-23T10:53:39;23.80;;;11.63;;
45694;SDS011;31408;45.468;9.124;2024-03-23T10:56:05;21.92;;;10.27;;
45694;SDS011;31408;45.468;9.124;2024-03-23T11:13:21;19.08;;;8.65;;
45694;SDS011;31408;45.468;9.124;2024-03-23T11:30:21;17.07;;;7.17;;
45694;SDS011;31408;45.468;9.124;2024-03-23T11:32:48;18.23;;;6.88;;
45694;SDS011;31408;45.468;9.124;2024-03-23T11:35:29;18.63;;;8.40;;
45694;SDS011;31408;45.468;9.124;2024-03-23T12:24:01;19.00;;;5.50;;
45694;SDS011;31408;45.468;9.124;2024-03-23T12:26:26;18.33;;;5.40;;
45694;SDS011;31408;45.468;9.124;2024-03-23T12:28:51;15.23;;;6.05;;
45694;SDS011;31408;45.468;9.124;2024-03-23T12:31:17;16.00;;;5.07;;
45694;SDS011;31408;45.468;9.124;2024-03-23T12:33:42;13.45;;;4.93;;
45694;SDS011;31408;45.468;9.124;2024-03-23T12:36:07;13.18;;;5.28;;
45694;SDS011;31408;45.468;9.124;2024-03-23T12:38:33;13.20;;;5.72;;
45694;SDS011;31408;45.468;9.124;2024-03-23T12:40:58;11.93;;;5.22;;
45694;SDS011;31408;45.468;9.124;2024-03-23T12:43:25;8.18;;;4.22;;
45694;SDS011;31408;45.468;9.124;2024-03-23T12:45:50;13.43;;;5.05;;
45694;SDS011;31408;45.468;9.124;2024-03-23T12:48:16;11.57;;;4.72;;
45694;SDS011;31408;45.468;9.124;2024-03-23T12:50:41;14.52;;;6.57;;
45694;SDS011;31408;45.468;9.124;2024-03-23T12:53:06;23.95;;;11.05;;
45694;SDS011;31408;45.468;9.124;2024-03-23T12:55:32;20.67;;;8.57;;
45694;SDS011;31408;45.468;9.124;2024-03-23T12:57:59;16.20;;;6.47;;
45694;SDS011;31408;45.468;9.124;2024-03-23T13:00:25;16.45;;;5.10;;
45694;SDS011;31408;45.468;9.124;2024-03-23T13:02:50;7.47;;;4.13;;
45694;SDS011;31408;45.468;9.124;2024-03-23T13:05:15;12.13;;;6.07;;
45694;SDS011;31408;45.468;9.124;2024-03-23T13:07:40;13.30;;;4.80;;
45694;SDS011;31408;45.468;9.124;2024-03-23T13:10:06;10.18;;;4.70;;
45694;SDS011;31408;45.468;9.124;2024-03-23T13:12:32;10.90;;;3.92;;
45694;SDS011;31408;45.468;9.124;2024-03-23T13:14:58;15.07;;;4.90;;
45694;SDS011;31408;45.468;9.124;2024-03-23T13:17:24;12.48;;;4.85;;
45694;SDS011;31408;45.468;9.124;2024-03-23T13:19:49;12.55;;;4.75;;
45694;SDS011;31408;45.468;9.124;2024-03-23T13:22:14;12.82;;;4.43;;
45694;SDS011;31408;45.468;9.124;2024-03-23T13:24:40;8.77;;;4.75;;
45694;SDS011;31408;45.468;9.124;2024-03-23T13:27:05;12.43;;;5.38;;
45694;SDS011;31408;45.468;9.124;2024-03-23T15:06:30;25.03;;;10.43;;
45694;SDS011;31408;45.468;9.124;2024-03-23T15:08:55;24.00;;;10.68;;
45694;SDS011;31408;45.468;9.124;2024-03-23T15:11:20;25.10;;;10.15;;
45694;SDS011;31408;45.468;9.124;2024-03-23T15:13:45;24.90;;;9.55;;
45694;SDS011;31408;45.468;9.124;2024-03-23T15:16:16;28.65;;;11.10;;
45694;SDS011;31408;45.468;9.124;2024-03-23T15:38:07;21.80;;;10.10;;
45694;SDS011;31408;45.468;9.124;2024-03-23T16:48:38;19.15;;;6.85;;
45694;SDS011;31408;45.468;9.124;2024-03-23T16:51:07;24.10;;;9.55;;
45694;SDS011;31408;45.468;9.124;2024-03-23T16:53:32;24.35;;;10.02;;
45694;SDS011;31408;45.468;9.124;2024-03-23T16:55:59;20.05;;;8.65;;
45694;SDS011;31408;45.468;9.124;2024-03-23T16:58:25;22.45;;;10.70;;
45694;SDS011;31408;45.468;9.124;2024-03-23T17:00:50;24.98;;;11.65;;
45694;SDS011;31408;45.468;9.124;2024-03-23T17:03:18;23.08;;;9.57;;
45694;SDS011;31408;45.468;9.124;2024-03-23T17:05:43;21.50;;;9.93;;
45694;SDS011;31408;45.468;9.124;2024-03-23T17:08:08;23.55;;;10.25;;
45694;SDS011;31408;45.468;9.124;2024-03-23T17:10:34;23.50;;;9.02;;
45694;SDS011;31408;45.468;9.124;2024-03-23T17:12:59;24.10;;;10.27;;
45694;SDS011;31408;45.468;9.124;2024-03-23T17:15:25;18.15;;;8.68;;
45694;SDS011;31408;45.468;9.124;2024-03-23T17:17:50;21.40;;;9.35;;
45694;SDS011;31408;45.468;9.124;2024-03-23T17:20:15;19.92;;;8.73;;
45694;SDS011;31408;45.468;9.124;2024-03-23T17:22:41;20.75;;;9.55;;
45694;SDS011;31408;45.468;9.124;2024-03-23T17:25:07;21.45;;;9.07;;
45694;SDS011;31408;45.468;9.124;2024-03-23T17:27:33;22.23;;;9.50;;
45694;SDS011;31408;45.468;9.124;2024-03-23T17:29:58;22.98;;;9.38;;
45694;SDS011;31408;45.468;9.124;2024-03-23T17:32:23;19.02;;;8.48;;
45694;SDS011;31408;45.468;9.124;2024-03-23T17:34:48;23.17;;;8.98;;
45694;SDS011;31408;45.468;9.124;2024-03-23T17:37:15;22.08;;;8.52;;
45694;SDS011;31408;45.468;9.124;2024-03-23T17:39:41;19.63;;;8.68;;
45694;SDS011;31408;45.468;9.124;2024-03-23T17:42:12;21.20;;;9.13;;
45694;SDS011;31408;45.468;9.124;2024-03-23T17:44:38;25.98;;;8.35;;
45694;SDS011;31408;45.468;9.124;2024-03-23T17:47:03;25.90;;;10.05;;
45694;SDS011;31408;45.468;9.124;2024-03-23T17:49:29;25.83;;;10.50;;
45694;SDS011;31408;45.468;9.124;2024-03-23T17:51:54;21.60;;;9.77;;
45694;SDS011;31408;45.468;9.124;2024-03-23T17:54:19;19.73;;;8.18;;
45694;SDS011;31408;45.468;9.124;2024-03-23T17:56:45;16.40;;;7.88;;
45694;SDS011;31408;45.468;9.124;2024-03-23T17:59:10;16.45;;;7.63;;
45694;SDS011;31408;45.468;9.124;2024-03-23T18:01:35;14.82;;;7.50;;
45694;SDS011;31408;45.468;9.124;2024-03-23T18:04:00;24.45;;;7.90;;
45694;SDS011;31408;45.468;9.124;2024-03-23T18:06:26;18.80;;;8.02;;
45694;SDS011;31408;45.468;9.124;2024-03-23T18:08:51;21.58;;;8.07;;
45694;SDS011;31408;45.468;9.124;2024-03-23T18:11:16;20.33;;;8.20;;
45694;SDS011;31408;45.468;9.124;2024-03-23T18:13:41;17.73;;;8.48;;
45694;SDS011;31408;45.468;9.124;2024-03-23T18:16:08;18.27;;;8.30;;
45694;SDS011;31408;45.468;9.124;2024-03-23T18:18:33;16.70;;;8.23;;
45694;SDS011;31408;45.468;9.124;2024-03-23T18:21:04;17.88;;;7.22;;
45694;SDS011;31408;45.468;9.124;2024-03-23T18:23:30;20.23;;;9.27;;
45694;SDS011;31408;45.468;9.124;2024-03-23T18:25:55;19.52;;;8.60;;
45694;SDS011;31408;45.468;9.124;2024-03-23T18:28:21;22.85;;;8.75;;
45694;SDS011;31408;45.468;9.124;2024-03-23T18:30:55;17.17;;;8.38;;
45694;SDS011;31408;45.468;9.124;2024-03-23T18:33:20;16.20;;;8.02;;
45694;SDS011;31408;45.468;9.124;2024-03-23T18:35:48;18.73;;;8.30;;
45694;SDS011;31408;45.468;9.124;2024-03-23T18:38:14;15.52;;;6.97;;
45694;SDS011;31408;45.468;9.124;2024-03-23T18:40:43;13.10;;;6.00;;
45694;SDS011;31408;45.468;9.124;2024-03-23T18:43:08;14.82;;;6.40;;
45694;SDS011;31408;45.468;9.124;2024-03-23T18:45:34;9.43;;;4.75;;
45694;SDS011;31408;45.468;9.124;2024-03-23T18:48:00;8.98;;;4.35;;
45694;SDS011;31408;45.468;9.124;2024-03-23T18:50:25;9.90;;;4.07;;
45694;SDS011;31408;45.468;9.124;2024-03-23T18:52:51;9.07;;;3.63;;
45694;SDS011;31408;45.468;9.124;2024-03-23T18:55:16;6.65;;;3.55;;
45694;SDS011;31408;45.468;9.124;2024-03-23T18:57:41;6.70;;;3.35;;
45694;SDS011;31408;45.468;9.124;2024-03-23T19:00:07;4.25;;;2.30;;
45694;SDS011;31408;45.468;9.124;2024-03-23T19:02:33;6.25;;;2.88;;
45694;SDS011;31408;45.468;9.124;2024-03-23T19:04:59;3.40;;;2.30;;
45694;SDS011;31408;45.468;9.124;2024-03-23T19:07:24;4.47;;;1.98;;
45694;SDS011;31408;45.468;9.124;2024-03-23T19:09:51;3.03;;;1.65;;
45694;SDS011;31408;45.468;9.124;2024-03-23T19:12:16;2.95;;;1.80;;
45694;SDS011;31408;45.468;9.124;2024-03-23T19:14:42;2.58;;;1.70;;
45694;SDS011;31408;45.468;9.124;2024-03-23T19:17:07;4.07;;;1.73;;
45694;SDS011;31408;45.468;9.124;2024-03-23T19:19:32;1.73;;;1.45;;
45694;SDS011;31408;45.468;9.124;2024-03-23T19:21:58;3.92;;;1.67;;
45694;SDS011;31408;45.468;9.124;2024-03-23T19:24:24;4.25;;;1.65;;
45694;SDS011;31408;45.468;9.124;2024-03-23T19:26:49;2.00;;;1.30;;
45694;SDS011;31408;45.468;9.124;2024-03-23T19:29:17;3.92;;;1.83;;
45694;SDS011;31408;45.468;9.124;2024-03-23T19:31:42;7.85;;;1.42;;
45694;SDS011;31408;45.468;9.124;2024-03-23T19:34:07;2.97;;;1.50;;
45694;SDS011;31408;45.468;9.124;2024-03-23T19:36:33;4.63;;;1.75;;
45694;SDS011;31408;45.468;9.124;2024-03-23T19:38:58;2.45;;;1.20;;
45694;SDS011;31408;45.468;9.124;2024-03-23T19:41:23;4.43;;;2.22;;
45694;SDS011;31408;45.468;9.124;2024-03-23T19:43:49;1.30;;;1.20;;
45694;SDS011;31408;45.468;9.124;2024-03-23T19:46:15;2.20;;;1.23;;